sensor_id;sensor_type;location;lat;lon;timestamp;P1;durP1;ratioP1;P2;durP2;ratioP2
77432;SDS011;66752;48.576;8.876;2023-11-22T00:00:55;8.75;;;3.92;;
77432;SDS011;66752;48.576;8.876;2023-11-22T00:03:21;9.82;;;4.80;;
77432;SDS011;66752;48.576;8.876;2023-11-22T00:05:49;8.13;;;4.13;;
77432;SDS011;66752;48.576;8.876;2023-11-22T00:08:15;8.48;;;4.70;;
77432;SDS011;66752;48.576;8.876;2023-11-22T00:10:41;7.88;;;4.10;;
77432;SDS011;66752;48.576;8.876;2023-11-22T00:13:07;7.57;;;4.00;;
77432;SDS011;66752;48.576;8.876;2023-11-22T00:15:33;7.82;;;4.85;;
77432;SDS011;66752;48.576;8.876;2023-11-22T00:17:59;6.57;;;3.78;;
77432;SDS011;66752;48.576;8.876;2023-11-22T00:20:28;6.57;;;3.47;;
77432;SDS011;66752;48.576;8.876;2023-11-22T00:22:54;7.30;;;3.58;;
77432;SDS011;66752;48.576;8.876;2023-11-22T00:25:20;7.95;;;4.65;;
77432;SDS011;66752;48.576;8.876;2023-11-22T00:27:46;7.03;;;3.50;;
77432;SDS011;66752;48.576;8.876;2023-11-22T00:30:13;8.18;;;4.38;;
77432;SDS011;66752;48.576;8.876;2023-11-22T00:35:08;9.40;;;4.30;;
77432;SDS011;66752;48.576;8.876;2023-11-22T00:37:34;7.32;;;4.43;;
77432;SDS011;66752;48.576;8.876;2023-11-22T00:40:00;8.68;;;4.50;;
77432;SDS011;66752;48.576;8.876;2023-11-22T00:42:35;8.18;;;4.35;;
77432;SDS011;66752;48.576;8.876;2023-11-22T00:45:01;7.88;;;4.13;;
77432;SDS011;66752;48.576;8.876;2023-11-22T00:47:30;7.80;;;3.80;;
77432;SDS011;66752;48.576;8.876;2023-11-22T00:49:56;8.18;;;4.60;;
77432;SDS011;66752;48.576;8.876;2023-11-22T00:52:22;8.20;;;4.35;;
77432;SDS011;66752;48.576;8.876;2023-11-22T00:54:48;7.75;;;4.25;;
77432;SDS011;66752;48.576;8.876;2023-11-22T00:57:14;7.32;;;3.00;;
77432;SDS011;66752;48.576;8.876;2023-11-22T00:59:40;4.72;;;2.08;;
77432;SDS011;66752;48.576;8.876;2023-11-22T01:02:06;6.15;;;1.65;;
77432;SDS011;66752;48.576;8.876;2023-11-22T01:07:01;4.32;;;1.70;;
77432;SDS011;66752;48.576;8.876;2023-11-22T01:09:27;4.18;;;1.73;;
77432;SDS011;66752;48.576;8.876;2023-11-22T01:11:53;4.22;;;1.77;;
77432;SDS011;66752;48.576;8.876;2023-11-22T01:14:19;4.07;;;1.80;;
77432;SDS011;66752;48.576;8.876;2023-11-22T01:16:46;5.07;;;1.75;;
77432;SDS011;66752;48.576;8.876;2023-11-22T01:19:13;4.95;;;2.30;;
77432;SDS011;66752;48.576;8.876;2023-11-22T01:21:39;4.60;;;1.95;;
77432;SDS011;66752;48.576;8.876;2023-11-22T01:24:05;4.63;;;2.28;;
77432;SDS011;66752;48.576;8.876;2023-11-22T01:26:31;5.90;;;2.38;;
77432;SDS011;66752;48.576;8.876;2023-11-22T01:28:57;4.90;;;2.50;;
77432;SDS011;66752;48.576;8.876;2023-11-22T01:31:25;6.00;;;3.10;;
77432;SDS011;66752;48.576;8.876;2023-11-22T01:33:52;6.85;;;3.00;;
77432;SDS011;66752;48.576;8.876;2023-11-22T01:36:18;5.50;;;2.47;;
77432;SDS011;66752;48.576;8.876;2023-11-22T01:38:44;5.70;;;2.88;;
77432;SDS011;66752;48.576;8.876;2023-11-22T01:41:11;5.60;;;2.80;;
77432;SDS011;66752;48.576;8.876;2023-11-22T01:43:40;5.80;;;2.83;;
77432;SDS011;66752;48.576;8.876;2023-11-22T01:46:09;5.80;;;3.05;;
77432;SDS011;66752;48.576;8.876;2023-11-22T01:48:36;6.82;;;2.88;;
77432;SDS011;66752;48.576;8.876;2023-11-22T01:51:02;6.13;;;3.45;;
77432;SDS011;66752;48.576;8.876;2023-11-22T01:53:29;4.55;;;2.63;;
77432;SDS011;66752;48.576;8.876;2023-11-22T01:55:56;5.90;;;3.13;;
77432;SDS011;66752;48.576;8.876;2023-11-22T01:58:22;6.13;;;3.20;;
77432;SDS011;66752;48.576;8.876;2023-11-22T02:00:49;6.72;;;3.33;;
77432;SDS011;66752;48.576;8.876;2023-11-22T02:03:15;6.07;;;3.08;;
77432;SDS011;66752;48.576;8.876;2023-11-22T02:05:41;5.68;;;3.17;;
77432;SDS011;66752;48.576;8.876;2023-11-22T02:08:09;8.13;;;3.65;;
77432;SDS011;66752;48.576;8.876;2023-11-22T02:10:35;5.72;;;2.97;;
77432;SDS011;66752;48.576;8.876;2023-11-22T02:13:05;6.60;;;3.35;;
77432;SDS011;66752;48.576;8.876;2023-11-22T02:15:33;6.72;;;3.25;;
77432;SDS011;66752;48.576;8.876;2023-11-22T02:17:59;6.30;;;3.55;;
77432;SDS011;66752;48.576;8.876;2023-11-22T02:20:25;5.50;;;2.75;;
77432;SDS011;66752;48.576;8.876;2023-11-22T02:22:51;5.93;;;3.55;;
77432;SDS011;66752;48.576;8.876;2023-11-22T02:27:44;6.10;;;3.05;;
77432;SDS011;66752;48.576;8.876;2023-11-22T02:30:10;6.25;;;2.97;;
77432;SDS011;66752;48.576;8.876;2023-11-22T02:32:36;5.35;;;2.72;;
77432;SDS011;66752;48.576;8.876;2023-11-22T02:35:02;5.30;;;2.78;;
77432;SDS011;66752;48.576;8.876;2023-11-22T02:37:32;5.53;;;2.85;;
77432;SDS011;66752;48.576;8.876;2023-11-22T02:42:48;5.60;;;2.47;;
77432;SDS011;66752;48.576;8.876;2023-11-22T02:45:15;5.82;;;3.30;;
77432;SDS011;66752;48.576;8.876;2023-11-22T02:47:42;6.03;;;2.90;;
77432;SDS011;66752;48.576;8.876;2023-11-22T02:52:36;5.65;;;3.15;;
77432;SDS011;66752;48.576;8.876;2023-11-22T02:55:02;6.07;;;3.10;;
77432;SDS011;66752;48.576;8.876;2023-11-22T02:57:29;6.43;;;3.28;;
77432;SDS011;66752;48.576;8.876;2023-11-22T02:59:56;5.80;;;3.03;;
77432;SDS011;66752;48.576;8.876;2023-11-22T03:02:22;7.75;;;3.53;;
77432;SDS011;66752;48.576;8.876;2023-11-22T03:04:49;6.47;;;3.38;;
77432;SDS011;66752;48.576;8.876;2023-11-22T03:07:15;6.95;;;3.75;;
77432;SDS011;66752;48.576;8.876;2023-11-22T03:09:41;6.80;;;3.45;;
77432;SDS011;66752;48.576;8.876;2023-11-22T03:12:08;6.43;;;3.33;;
77432;SDS011;66752;48.576;8.876;2023-11-22T03:14:35;6.32;;;3.22;;
77432;SDS011;66752;48.576;8.876;2023-11-22T03:17:01;6.68;;;3.40;;
77432;SDS011;66752;48.576;8.876;2023-11-22T03:21:54;6.20;;;3.28;;
77432;SDS011;66752;48.576;8.876;2023-11-22T03:24:21;5.88;;;3.28;;
77432;SDS011;66752;48.576;8.876;2023-11-22T03:26:47;6.32;;;3.33;;
77432;SDS011;66752;48.576;8.876;2023-11-22T03:29:16;6.72;;;3.72;;
77432;SDS011;66752;48.576;8.876;2023-11-22T03:31:43;6.10;;;3.20;;
77432;SDS011;66752;48.576;8.876;2023-11-22T03:34:09;6.28;;;3.03;;
77432;SDS011;66752;48.576;8.876;2023-11-22T03:36:35;7.15;;;3.60;;
77432;SDS011;66752;48.576;8.876;2023-11-22T03:39:01;6.43;;;3.97;;
77432;SDS011;66752;48.576;8.876;2023-11-22T03:41:27;7.45;;;3.65;;
77432;SDS011;66752;48.576;8.876;2023-11-22T03:43:53;6.55;;;3.15;;
77432;SDS011;66752;48.576;8.876;2023-11-22T03:46:19;6.53;;;3.67;;
77432;SDS011;66752;48.576;8.876;2023-11-22T03:48:45;5.88;;;3.10;;
77432;SDS011;66752;48.576;8.876;2023-11-22T03:51:12;6.55;;;3.35;;
77432;SDS011;66752;48.576;8.876;2023-11-22T03:53:38;6.53;;;3.40;;
77432;SDS011;66752;48.576;8.876;2023-11-22T03:56:04;6.78;;;3.13;;
77432;SDS011;66752;48.576;8.876;2023-11-22T03:58:30;6.63;;;3.17;;
77432;SDS011;66752;48.576;8.876;2023-11-22T04:00:56;6.00;;;2.97;;
77432;SDS011;66752;48.576;8.876;2023-11-22T04:03:24;6.75;;;3.15;;
77432;SDS011;66752;48.576;8.876;2023-11-22T04:05:50;6.93;;;3.47;;
77432;SDS011;66752;48.576;8.876;2023-11-22T04:08:16;5.47;;;3.13;;
77432;SDS011;66752;48.576;8.876;2023-11-22T04:10:42;6.65;;;3.17;;
77432;SDS011;66752;48.576;8.876;2023-11-22T04:13:08;7.20;;;3.88;;
77432;SDS011;66752;48.576;8.876;2023-11-22T04:15:34;7.97;;;3.83;;
77432;SDS011;66752;48.576;8.876;2023-11-22T04:18:00;8.50;;;4.00;;
77432;SDS011;66752;48.576;8.876;2023-11-22T04:20:26;7.47;;;3.97;;
77432;SDS011;66752;48.576;8.876;2023-11-22T04:22:52;7.03;;;3.85;;
77432;SDS011;66752;48.576;8.876;2023-11-22T04:25:18;7.65;;;3.85;;
77432;SDS011;66752;48.576;8.876;2023-11-22T04:27:44;6.78;;;3.58;;
77432;SDS011;66752;48.576;8.876;2023-11-22T04:30:10;6.85;;;3.88;;
77432;SDS011;66752;48.576;8.876;2023-11-22T04:32:39;7.60;;;4.15;;
77432;SDS011;66752;48.576;8.876;2023-11-22T04:35:05;6.38;;;3.10;;
77432;SDS011;66752;48.576;8.876;2023-11-22T04:37:31;7.20;;;3.65;;
77432;SDS011;66752;48.576;8.876;2023-11-22T04:40:01;6.63;;;3.42;;
77432;SDS011;66752;48.576;8.876;2023-11-22T04:42:28;8.05;;;3.95;;
77432;SDS011;66752;48.576;8.876;2023-11-22T04:44:54;8.63;;;4.35;;
77432;SDS011;66752;48.576;8.876;2023-11-22T04:47:20;7.05;;;4.05;;
77432;SDS011;66752;48.576;8.876;2023-11-22T04:49:47;8.63;;;4.50;;
77432;SDS011;66752;48.576;8.876;2023-11-22T04:52:13;7.45;;;3.78;;
77432;SDS011;66752;48.576;8.876;2023-11-22T04:54:39;6.85;;;3.58;;
77432;SDS011;66752;48.576;8.876;2023-11-22T04:57:05;8.10;;;4.35;;
77432;SDS011;66752;48.576;8.876;2023-11-22T04:59:31;8.60;;;4.30;;
77432;SDS011;66752;48.576;8.876;2023-11-22T05:01:57;7.82;;;3.80;;
77432;SDS011;66752;48.576;8.876;2023-11-22T05:04:23;7.55;;;3.58;;
77432;SDS011;66752;48.576;8.876;2023-11-22T05:06:51;8.20;;;4.57;;
77432;SDS011;66752;48.576;8.876;2023-11-22T05:09:17;8.18;;;4.60;;
77432;SDS011;66752;48.576;8.876;2023-11-22T05:11:43;7.22;;;3.95;;
77432;SDS011;66752;48.576;8.876;2023-11-22T05:14:10;8.07;;;4.07;;
77432;SDS011;66752;48.576;8.876;2023-11-22T05:16:36;8.40;;;4.47;;
77432;SDS011;66752;48.576;8.876;2023-11-22T05:19:02;8.13;;;4.63;;
77432;SDS011;66752;48.576;8.876;2023-11-22T05:21:28;7.38;;;3.60;;
77432;SDS011;66752;48.576;8.876;2023-11-22T05:23:54;7.13;;;3.85;;
77432;SDS011;66752;48.576;8.876;2023-11-22T05:26:20;7.60;;;3.78;;
77432;SDS011;66752;48.576;8.876;2023-11-22T05:28:49;7.80;;;4.68;;
77432;SDS011;66752;48.576;8.876;2023-11-22T05:31:15;6.70;;;3.95;;
77432;SDS011;66752;48.576;8.876;2023-11-22T05:33:41;8.30;;;3.88;;
77432;SDS011;66752;48.576;8.876;2023-11-22T05:36:07;8.50;;;3.75;;
77432;SDS011;66752;48.576;8.876;2023-11-22T05:38:33;9.52;;;3.78;;
77432;SDS011;66752;48.576;8.876;2023-11-22T05:41:00;6.90;;;3.80;;
77432;SDS011;66752;48.576;8.876;2023-11-22T05:43:26;6.20;;;3.53;;
77432;SDS011;66752;48.576;8.876;2023-11-22T05:45:52;5.97;;;3.20;;
77432;SDS011;66752;48.576;8.876;2023-11-22T05:48:18;6.25;;;3.08;;
77432;SDS011;66752;48.576;8.876;2023-11-22T05:50:45;7.15;;;3.67;;
77432;SDS011;66752;48.576;8.876;2023-11-22T05:53:11;7.18;;;3.22;;
77432;SDS011;66752;48.576;8.876;2023-11-22T05:55:37;6.88;;;3.65;;
77432;SDS011;66752;48.576;8.876;2023-11-22T05:58:03;6.97;;;3.55;;
77432;SDS011;66752;48.576;8.876;2023-11-22T06:00:29;6.10;;;3.33;;
77432;SDS011;66752;48.576;8.876;2023-11-22T06:02:55;7.65;;;3.83;;
77432;SDS011;66752;48.576;8.876;2023-11-22T06:05:21;6.13;;;3.42;;
77432;SDS011;66752;48.576;8.876;2023-11-22T06:07:47;6.57;;;3.22;;
77432;SDS011;66752;48.576;8.876;2023-11-22T06:10:13;6.70;;;3.33;;
77432;SDS011;66752;48.576;8.876;2023-11-22T06:12:40;7.15;;;3.55;;
77432;SDS011;66752;48.576;8.876;2023-11-22T06:15:07;7.80;;;4.05;;
77432;SDS011;66752;48.576;8.876;2023-11-22T06:17:33;7.55;;;3.70;;
77432;SDS011;66752;48.576;8.876;2023-11-22T06:19:59;5.32;;;3.17;;
77432;SDS011;66752;48.576;8.876;2023-11-22T06:22:25;7.18;;;4.07;;
77432;SDS011;66752;48.576;8.876;2023-11-22T06:24:51;6.38;;;2.92;;
77432;SDS011;66752;48.576;8.876;2023-11-22T06:27:17;6.68;;;3.42;;
77432;SDS011;66752;48.576;8.876;2023-11-22T06:29:43;6.82;;;3.10;;
77432;SDS011;66752;48.576;8.876;2023-11-22T06:32:10;6.05;;;3.05;;
77432;SDS011;66752;48.576;8.876;2023-11-22T06:34:36;7.22;;;3.75;;
77432;SDS011;66752;48.576;8.876;2023-11-22T06:37:02;6.03;;;3.30;;
77432;SDS011;66752;48.576;8.876;2023-11-22T06:39:29;5.70;;;2.95;;
77432;SDS011;66752;48.576;8.876;2023-11-22T06:41:55;7.43;;;3.70;;
77432;SDS011;66752;48.576;8.876;2023-11-22T06:44:21;8.38;;;3.85;;
77432;SDS011;66752;48.576;8.876;2023-11-22T06:46:47;7.47;;;3.60;;
77432;SDS011;66752;48.576;8.876;2023-11-22T06:49:13;8.15;;;4.07;;
77432;SDS011;66752;48.576;8.876;2023-11-22T06:51:39;10.30;;;3.17;;
77432;SDS011;66752;48.576;8.876;2023-11-22T06:54:05;6.47;;;3.45;;
77432;SDS011;66752;48.576;8.876;2023-11-22T06:56:31;6.50;;;3.30;;
77432;SDS011;66752;48.576;8.876;2023-11-22T06:58:57;7.78;;;3.28;;
77432;SDS011;66752;48.576;8.876;2023-11-22T07:01:23;5.95;;;2.72;;
77432;SDS011;66752;48.576;8.876;2023-11-22T07:03:52;8.38;;;3.50;;
77432;SDS011;66752;48.576;8.876;2023-11-22T07:06:18;8.38;;;3.83;;
77432;SDS011;66752;48.576;8.876;2023-11-22T07:08:47;7.32;;;3.63;;
77432;SDS011;66752;48.576;8.876;2023-11-22T07:11:13;9.57;;;3.95;;
77432;SDS011;66752;48.576;8.876;2023-11-22T07:13:39;7.15;;;3.42;;
77432;SDS011;66752;48.576;8.876;2023-11-22T07:16:05;8.13;;;4.05;;
77432;SDS011;66752;48.576;8.876;2023-11-22T07:18:32;8.27;;;4.15;;
77432;SDS011;66752;48.576;8.876;2023-11-22T07:20:58;8.30;;;3.63;;
77432;SDS011;66752;48.576;8.876;2023-11-22T07:23:25;9.00;;;3.83;;
77432;SDS011;66752;48.576;8.876;2023-11-22T07:25:54;7.45;;;3.97;;
77432;SDS011;66752;48.576;8.876;2023-11-22T07:28:20;6.10;;;2.90;;
77432;SDS011;66752;48.576;8.876;2023-11-22T07:30:46;6.60;;;3.65;;
77432;SDS011;66752;48.576;8.876;2023-11-22T07:33:13;10.15;;;4.00;;
77432;SDS011;66752;48.576;8.876;2023-11-22T07:35:45;8.88;;;3.50;;
77432;SDS011;66752;48.576;8.876;2023-11-22T07:38:11;7.78;;;3.75;;
77432;SDS011;66752;48.576;8.876;2023-11-22T07:40:37;7.43;;;4.28;;
77432;SDS011;66752;48.576;8.876;2023-11-22T07:43:03;6.35;;;3.33;;
77432;SDS011;66752;48.576;8.876;2023-11-22T07:45:30;6.00;;;3.10;;
77432;SDS011;66752;48.576;8.876;2023-11-22T07:47:57;6.35;;;3.25;;
77432;SDS011;66752;48.576;8.876;2023-11-22T07:50:24;6.72;;;2.90;;
77432;SDS011;66752;48.576;8.876;2023-11-22T07:52:50;9.13;;;4.45;;
77432;SDS011;66752;48.576;8.876;2023-11-22T07:55:16;6.25;;;3.88;;
77432;SDS011;66752;48.576;8.876;2023-11-22T07:57:43;7.30;;;3.42;;
77432;SDS011;66752;48.576;8.876;2023-11-22T08:00:10;8.68;;;3.70;;
77432;SDS011;66752;48.576;8.876;2023-11-22T08:02:36;5.32;;;3.22;;
77432;SDS011;66752;48.576;8.876;2023-11-22T08:05:07;6.90;;;3.30;;
77432;SDS011;66752;48.576;8.876;2023-11-22T08:07:34;5.72;;;3.17;;
77432;SDS011;66752;48.576;8.876;2023-11-22T08:10:03;6.70;;;3.40;;
77432;SDS011;66752;48.576;8.876;2023-11-22T08:12:34;10.40;;;4.03;;
77432;SDS011;66752;48.576;8.876;2023-11-22T08:15:00;7.70;;;3.40;;
77432;SDS011;66752;48.576;8.876;2023-11-22T08:17:28;7.65;;;3.83;;
77432;SDS011;66752;48.576;8.876;2023-11-22T08:19:54;7.13;;;3.58;;
77432;SDS011;66752;48.576;8.876;2023-11-22T08:22:20;7.18;;;3.85;;
77432;SDS011;66752;48.576;8.876;2023-11-22T08:24:46;7.43;;;3.70;;
77432;SDS011;66752;48.576;8.876;2023-11-22T08:27:12;7.32;;;4.03;;
77432;SDS011;66752;48.576;8.876;2023-11-22T08:29:41;6.97;;;3.38;;
77432;SDS011;66752;48.576;8.876;2023-11-22T08:32:07;6.20;;;3.67;;
77432;SDS011;66752;48.576;8.876;2023-11-22T08:34:33;5.82;;;3.22;;
77432;SDS011;66752;48.576;8.876;2023-11-22T08:36:59;7.65;;;3.47;;
77432;SDS011;66752;48.576;8.876;2023-11-22T08:39:25;5.57;;;3.05;;
77432;SDS011;66752;48.576;8.876;2023-11-22T08:41:52;7.85;;;3.47;;
77432;SDS011;66752;48.576;8.876;2023-11-22T08:44:18;7.28;;;3.20;;
77432;SDS011;66752;48.576;8.876;2023-11-22T08:46:44;6.05;;;2.78;;
77432;SDS011;66752;48.576;8.876;2023-11-22T08:49:12;6.07;;;3.05;;
77432;SDS011;66752;48.576;8.876;2023-11-22T08:51:40;5.90;;;3.25;;
77432;SDS011;66752;48.576;8.876;2023-11-22T08:54:07;6.32;;;3.13;;
77432;SDS011;66752;48.576;8.876;2023-11-22T08:56:33;7.22;;;3.25;;
77432;SDS011;66752;48.576;8.876;2023-11-22T08:59:00;6.47;;;3.70;;
77432;SDS011;66752;48.576;8.876;2023-11-22T09:01:26;8.95;;;5.07;;
77432;SDS011;66752;48.576;8.876;2023-11-22T09:03:52;7.05;;;4.25;;
77432;SDS011;66752;48.576;8.876;2023-11-22T09:06:18;7.82;;;3.85;;
77432;SDS011;66752;48.576;8.876;2023-11-22T09:08:44;9.25;;;5.57;;
77432;SDS011;66752;48.576;8.876;2023-11-22T09:11:11;8.75;;;5.22;;
77432;SDS011;66752;48.576;8.876;2023-11-22T09:13:38;6.32;;;3.28;;
77432;SDS011;66752;48.576;8.876;2023-11-22T09:16:05;8.20;;;4.35;;
77432;SDS011;66752;48.576;8.876;2023-11-22T09:18:31;7.55;;;5.03;;
77432;SDS011;66752;48.576;8.876;2023-11-22T09:20:57;8.35;;;4.20;;
77432;SDS011;66752;48.576;8.876;2023-11-22T09:23:23;6.18;;;3.38;;
77432;SDS011;66752;48.576;8.876;2023-11-22T09:25:51;8.50;;;5.18;;
77432;SDS011;66752;48.576;8.876;2023-11-22T09:28:17;6.57;;;4.22;;
77432;SDS011;66752;48.576;8.876;2023-11-22T09:30:44;9.68;;;6.60;;
77432;SDS011;66752;48.576;8.876;2023-11-22T09:33:14;9.60;;;5.07;;
77432;SDS011;66752;48.576;8.876;2023-11-22T09:35:41;6.97;;;4.60;;
77432;SDS011;66752;48.576;8.876;2023-11-22T09:38:09;7.57;;;4.50;;
77432;SDS011;66752;48.576;8.876;2023-11-22T09:40:40;6.55;;;4.18;;
77432;SDS011;66752;48.576;8.876;2023-11-22T09:43:06;10.13;;;6.25;;
77432;SDS011;66752;48.576;8.876;2023-11-22T09:45:32;13.13;;;7.20;;
77432;SDS011;66752;48.576;8.876;2023-11-22T09:47:59;7.85;;;4.97;;
77432;SDS011;66752;48.576;8.876;2023-11-22T09:50:29;9.65;;;5.07;;
77432;SDS011;66752;48.576;8.876;2023-11-22T09:53:00;10.88;;;5.40;;
77432;SDS011;66752;48.576;8.876;2023-11-22T09:55:27;9.70;;;4.20;;
77432;SDS011;66752;48.576;8.876;2023-11-22T09:57:54;6.68;;;4.18;;
77432;SDS011;66752;48.576;8.876;2023-11-22T10:00:22;8.32;;;3.80;;
77432;SDS011;66752;48.576;8.876;2023-11-22T10:02:52;9.90;;;5.93;;
77432;SDS011;66752;48.576;8.876;2023-11-22T10:05:19;7.15;;;3.90;;
77432;SDS011;66752;48.576;8.876;2023-11-22T10:07:45;7.60;;;4.07;;
77432;SDS011;66752;48.576;8.876;2023-11-22T10:10:12;8.52;;;5.03;;
77432;SDS011;66752;48.576;8.876;2023-11-22T10:15:15;7.72;;;4.03;;
77432;SDS011;66752;48.576;8.876;2023-11-22T10:17:56;13.02;;;6.65;;
77432;SDS011;66752;48.576;8.876;2023-11-22T10:20:45;14.63;;;7.57;;
77432;SDS011;66752;48.576;8.876;2023-11-22T10:23:12;20.58;;;11.88;;
77432;SDS011;66752;48.576;8.876;2023-11-22T10:25:47;23.55;;;13.63;;
77432;SDS011;66752;48.576;8.876;2023-11-22T10:30:42;14.23;;;8.18;;
77432;SDS011;66752;48.576;8.876;2023-11-22T10:33:09;7.95;;;4.28;;
77432;SDS011;66752;48.576;8.876;2023-11-22T10:35:39;9.75;;;5.25;;
77432;SDS011;66752;48.576;8.876;2023-11-22T10:38:07;8.57;;;3.47;;
77432;SDS011;66752;48.576;8.876;2023-11-22T10:40:34;7.65;;;4.40;;
77432;SDS011;66752;48.576;8.876;2023-11-22T10:42:59;10.27;;;4.68;;
77432;SDS011;66752;48.576;8.876;2023-11-22T10:45:27;9.25;;;4.38;;
77432;SDS011;66752;48.576;8.876;2023-11-22T10:47:54;6.18;;;3.50;;
77432;SDS011;66752;48.576;8.876;2023-11-22T10:50:22;7.50;;;3.72;;
77432;SDS011;66752;48.576;8.876;2023-11-22T10:52:48;6.93;;;3.20;;
77432;SDS011;66752;48.576;8.876;2023-11-22T10:55:20;9.00;;;3.75;;
77432;SDS011;66752;48.576;8.876;2023-11-22T10:57:47;6.70;;;3.38;;
77432;SDS011;66752;48.576;8.876;2023-11-22T11:00:16;7.78;;;3.97;;
77432;SDS011;66752;48.576;8.876;2023-11-22T11:02:47;6.40;;;3.55;;
77432;SDS011;66752;48.576;8.876;2023-11-22T11:05:18;7.47;;;4.15;;
77432;SDS011;66752;48.576;8.876;2023-11-22T11:07:53;8.05;;;4.05;;
77432;SDS011;66752;48.576;8.876;2023-11-22T11:10:20;11.88;;;5.75;;
77432;SDS011;66752;48.576;8.876;2023-11-22T11:12:47;8.10;;;3.75;;
77432;SDS011;66752;48.576;8.876;2023-11-22T11:15:14;8.02;;;3.78;;
77432;SDS011;66752;48.576;8.876;2023-11-22T11:17:40;9.07;;;3.67;;
77432;SDS011;66752;48.576;8.876;2023-11-22T11:20:06;7.55;;;4.07;;
77432;SDS011;66752;48.576;8.876;2023-11-22T11:22:34;8.82;;;4.20;;
77432;SDS011;66752;48.576;8.876;2023-11-22T11:25:01;9.40;;;4.70;;
77432;SDS011;66752;48.576;8.876;2023-11-22T11:27:30;8.00;;;3.97;;
77432;SDS011;66752;48.576;8.876;2023-11-22T11:30:00;7.47;;;3.75;;
77432;SDS011;66752;48.576;8.876;2023-11-22T11:32:30;9.07;;;4.35;;
77432;SDS011;66752;48.576;8.876;2023-11-22T11:34:57;11.50;;;5.25;;
77432;SDS011;66752;48.576;8.876;2023-11-22T11:37:25;8.75;;;4.68;;
77432;SDS011;66752;48.576;8.876;2023-11-22T11:39:51;6.35;;;3.88;;
77432;SDS011;66752;48.576;8.876;2023-11-22T11:42:17;9.93;;;5.15;;
77432;SDS011;66752;48.576;8.876;2023-11-22T11:47:24;8.63;;;3.70;;
77432;SDS011;66752;48.576;8.876;2023-11-22T11:49:50;8.93;;;4.45;;
77432;SDS011;66752;48.576;8.876;2023-11-22T11:52:16;12.18;;;5.72;;
77432;SDS011;66752;48.576;8.876;2023-11-22T11:54:42;7.97;;;4.80;;
77432;SDS011;66752;48.576;8.876;2023-11-22T11:57:09;8.25;;;5.00;;
77432;SDS011;66752;48.576;8.876;2023-11-22T11:59:35;9.70;;;4.80;;
77432;SDS011;66752;48.576;8.876;2023-11-22T12:02:01;8.27;;;4.50;;
77432;SDS011;66752;48.576;8.876;2023-11-22T12:04:31;8.05;;;4.78;;
77432;SDS011;66752;48.576;8.876;2023-11-22T12:06:57;8.35;;;5.15;;
77432;SDS011;66752;48.576;8.876;2023-11-22T12:09:24;7.40;;;4.07;;
77432;SDS011;66752;48.576;8.876;2023-11-22T12:11:56;9.90;;;5.22;;
77432;SDS011;66752;48.576;8.876;2023-11-22T12:14:25;10.38;;;5.22;;
77432;SDS011;66752;48.576;8.876;2023-11-22T12:16:52;8.55;;;3.95;;
77432;SDS011;66752;48.576;8.876;2023-11-22T12:19:27;9.77;;;5.05;;
77432;SDS011;66752;48.576;8.876;2023-11-22T12:21:53;8.13;;;4.47;;
77432;SDS011;66752;48.576;8.876;2023-11-22T12:24:19;8.48;;;4.88;;
77432;SDS011;66752;48.576;8.876;2023-11-22T12:26:46;10.35;;;4.85;;
77432;SDS011;66752;48.576;8.876;2023-11-22T12:29:14;9.70;;;5.40;;
77432;SDS011;66752;48.576;8.876;2023-11-22T12:31:45;8.55;;;4.65;;
77432;SDS011;66752;48.576;8.876;2023-11-22T12:34:12;9.07;;;5.88;;
77432;SDS011;66752;48.576;8.876;2023-11-22T12:36:38;10.88;;;5.90;;
77432;SDS011;66752;48.576;8.876;2023-11-22T12:39:09;9.13;;;4.70;;
77432;SDS011;66752;48.576;8.876;2023-11-22T12:41:48;10.88;;;4.72;;
77432;SDS011;66752;48.576;8.876;2023-11-22T12:44:15;8.18;;;4.60;;
77432;SDS011;66752;48.576;8.876;2023-11-22T12:46:48;9.98;;;5.22;;
77432;SDS011;66752;48.576;8.876;2023-11-22T12:49:17;10.65;;;5.15;;
77432;SDS011;66752;48.576;8.876;2023-11-22T12:51:50;8.98;;;5.25;;
77432;SDS011;66752;48.576;8.876;2023-11-22T12:56:46;9.45;;;4.55;;
77432;SDS011;66752;48.576;8.876;2023-11-22T12:59:14;10.63;;;5.00;;
77432;SDS011;66752;48.576;8.876;2023-11-22T13:01:40;8.23;;;4.78;;
77432;SDS011;66752;48.576;8.876;2023-11-22T13:04:06;7.40;;;4.03;;
77432;SDS011;66752;48.576;8.876;2023-11-22T13:06:33;8.02;;;4.63;;
77432;SDS011;66752;48.576;8.876;2023-11-22T13:08:59;8.32;;;4.30;;
77432;SDS011;66752;48.576;8.876;2023-11-22T13:11:25;9.27;;;4.93;;
77432;SDS011;66752;48.576;8.876;2023-11-22T13:13:51;9.77;;;4.95;;
77432;SDS011;66752;48.576;8.876;2023-11-22T13:16:17;8.80;;;4.72;;
77432;SDS011;66752;48.576;8.876;2023-11-22T13:18:43;10.63;;;5.13;;
77432;SDS011;66752;48.576;8.876;2023-11-22T13:21:09;9.55;;;5.10;;
77432;SDS011;66752;48.576;8.876;2023-11-22T13:23:35;12.65;;;5.63;;
77432;SDS011;66752;48.576;8.876;2023-11-22T13:26:01;8.77;;;4.60;;
77432;SDS011;66752;48.576;8.876;2023-11-22T13:28:28;8.65;;;4.93;;
77432;SDS011;66752;48.576;8.876;2023-11-22T13:30:54;10.02;;;5.30;;
77432;SDS011;66752;48.576;8.876;2023-11-22T13:33:20;10.95;;;5.68;;
77432;SDS011;66752;48.576;8.876;2023-11-22T13:35:46;10.30;;;5.30;;
77432;SDS011;66752;48.576;8.876;2023-11-22T13:38:12;10.07;;;5.63;;
77432;SDS011;66752;48.576;8.876;2023-11-22T13:40:38;9.70;;;5.38;;
77432;SDS011;66752;48.576;8.876;2023-11-22T13:43:05;9.55;;;4.97;;
77432;SDS011;66752;48.576;8.876;2023-11-22T13:45:32;9.57;;;5.03;;
77432;SDS011;66752;48.576;8.876;2023-11-22T13:48:01;11.07;;;5.25;;
77432;SDS011;66752;48.576;8.876;2023-11-22T13:50:32;9.52;;;5.13;;
77432;SDS011;66752;48.576;8.876;2023-11-22T13:52:58;9.82;;;4.88;;
77432;SDS011;66752;48.576;8.876;2023-11-22T13:55:24;11.07;;;5.78;;
77432;SDS011;66752;48.576;8.876;2023-11-22T13:57:54;10.38;;;5.25;;
77432;SDS011;66752;48.576;8.876;2023-11-22T14:00:21;9.57;;;5.40;;
77432;SDS011;66752;48.576;8.876;2023-11-22T14:02:48;9.38;;;5.03;;
77432;SDS011;66752;48.576;8.876;2023-11-22T14:05:16;27.15;;;13.15;;
77432;SDS011;66752;48.576;8.876;2023-11-22T14:07:42;23.17;;;10.52;;
77432;SDS011;66752;48.576;8.876;2023-11-22T14:10:09;27.83;;;11.82;;
77432;SDS011;66752;48.576;8.876;2023-11-22T14:12:36;20.17;;;9.43;;
77432;SDS011;66752;48.576;8.876;2023-11-22T14:15:02;23.75;;;11.20;;
77432;SDS011;66752;48.576;8.876;2023-11-22T14:17:31;15.88;;;7.85;;
77432;SDS011;66752;48.576;8.876;2023-11-22T14:19:57;18.75;;;8.80;;
77432;SDS011;66752;48.576;8.876;2023-11-22T14:22:23;30.15;;;13.55;;
77432;SDS011;66752;48.576;8.876;2023-11-22T14:24:50;25.00;;;10.25;;
77432;SDS011;66752;48.576;8.876;2023-11-22T14:27:19;14.73;;;7.38;;
77432;SDS011;66752;48.576;8.876;2023-11-22T14:29:45;28.77;;;15.43;;
77432;SDS011;66752;48.576;8.876;2023-11-22T14:32:14;9.40;;;5.03;;
77432;SDS011;66752;48.576;8.876;2023-11-22T14:34:41;12.07;;;7.60;;
77432;SDS011;66752;48.576;8.876;2023-11-22T14:37:08;11.20;;;6.65;;
77432;SDS011;66752;48.576;8.876;2023-11-22T14:39:34;12.95;;;7.25;;
77432;SDS011;66752;48.576;8.876;2023-11-22T14:42:01;7.72;;;4.53;;
77432;SDS011;66752;48.576;8.876;2023-11-22T14:44:27;10.30;;;6.38;;
77432;SDS011;66752;48.576;8.876;2023-11-22T14:46:53;10.45;;;6.90;;
77432;SDS011;66752;48.576;8.876;2023-11-22T14:49:19;11.15;;;8.13;;
77432;SDS011;66752;48.576;8.876;2023-11-22T14:51:46;9.35;;;6.35;;
77432;SDS011;66752;48.576;8.876;2023-11-22T14:54:13;7.32;;;3.72;;
77432;SDS011;66752;48.576;8.876;2023-11-22T14:56:39;11.13;;;7.65;;
77432;SDS011;66752;48.576;8.876;2023-11-22T14:59:05;10.57;;;7.35;;
77432;SDS011;66752;48.576;8.876;2023-11-22T15:01:35;11.48;;;6.68;;
77432;SDS011;66752;48.576;8.876;2023-11-22T15:04:01;14.07;;;6.85;;
77432;SDS011;66752;48.576;8.876;2023-11-22T15:06:27;13.35;;;7.85;;
77432;SDS011;66752;48.576;8.876;2023-11-22T15:08:53;9.27;;;5.68;;